Time;durP1;ratioP1;P1;durP2;ratioP2;P2;SDS_P1;SDS_P2;PMS_P1;PMS_P2;Temp;Humidity;BMP_temperature;BMP_pressure;BME280_temperature;BME280_humidity;BME280_pressure;Samples;Min_cycle;Max_cycle;Signal;HPM_P1;HPM_P2
2022/09/13 00:00:42;;;;;;;12.85;10.10;;;17.20;99.90;;;;;;5097180;28;20378;-71
2022/09/13 00:03:10;;;;;;;13.48;11.40;;;17.10;99.90;;;;;;5092707;28;20123;-71
2022/09/13 00:05:37;;;;;;;15.95;10.90;;;17.20;99.90;;;;;;5097546;28;20044;-71
2022/09/13 00:08:03;;;;;;;18.90;12.60;;;17.20;99.90;;;;;;5091762;28;20047;-71
2022/09/13 00:10:29;;;;;;;15.43;12.50;;;17.30;99.90;;;;;;5100566;28;20100;-71
2022/09/13 00:12:55;;;;;;;17.42;12.63;;;17.20;99.90;;;;;;5100020;28;20080;-71
2022/09/13 00:15:22;;;;;;;15.60;12.38;;;17.20;99.90;;;;;;5097357;28;20040;-71
2022/09/13 00:17:47;;;;;;;17.60;13.05;;;17.20;99.90;;;;;;5088963;28;20080;-71
2022/09/13 00:20:13;;;;;;;18.95;13.80;;;17.20;99.90;;;;;;5092222;28;20079;-71
2022/09/13 00:22:39;;;;;;;17.63;13.80;;;17.20;99.90;;;;;;5092401;28;20048;-72
2022/09/13 00:25:06;;;;;;;17.85;14.02;;;17.20;99.90;;;;;;5101681;28;20083;-71
2022/09/13 00:27:33;;;;;;;18.83;13.75;;;17.20;99.90;;;;;;5101225;28;20048;-72
2022/09/13 00:29:59;;;;;;;17.13;13.55;;;17.20;99.90;;;;;;5092012;28;20048;-71
2022/09/13 00:32:25;;;;;;;18.73;13.90;;;17.20;99.90;;;;;;5089523;28;20112;-72
2022/09/13 00:34:51;;;;;;;19.42;14.38;;;17.20;99.90;;;;;;5097780;28;20048;-71
2022/09/13 00:37:16;;;;;;;17.15;14.02;;;17.20;99.90;;;;;;5086503;28;20067;-72
2022/09/13 00:39:42;;;;;;;19.52;13.45;;;17.20;99.90;;;;;;5085158;28;20068;-71
2022/09/13 00:42:11;;;;;;;18.67;14.20;;;17.20;99.90;;;;;;5090133;28;20052;-71
2022/09/13 00:44:49;;;;;;;18.95;13.88;;;17.20;99.90;;;;;;5090007;28;20096;-71
2022/09/13 00:47:27;;;;;;;19.73;15.18;;;17.10;99.90;;;;;;5096369;28;20040;-71
2022/09/13 00:50:16;;;;;;;18.95;14.82;;;17.10;99.90;;;;;;5094422;28;20059;-71
2022/09/13 00:52:46;;;;;;;19.40;14.77;;;17.10;99.90;;;;;;5083966;28;20040;-72
2022/09/13 00:55:26;;;;;;;21.60;15.68;;;17.10;99.90;;;;;;5098420;28;20045;-71
2022/09/13 00:57:54;;;;;;;;;;;17.10;99.90;;;;;;5095386;28;20103;-72
2022/09/13 01:00:20;;;;;;;22.40;17.40;;;17.20;99.90;;;;;;5086515;28;19924;-71
2022/09/13 01:02:59;;;;;;;23.50;17.13;;;17.30;99.90;;;;;;5091950;28;20154;-71
2022/09/13 01:05:29;;;;;;;22.13;17.88;;;17.30;99.90;;;;;;5102453;28;20047;-71
2022/09/13 01:07:55;;;;;;;;;;;17.30;99.90;;;;;;5090915;28;20056;-71
2022/09/13 01:10:22;;;;;;;26.27;17.27;;;17.30;99.90;;;;;;5094657;28;20024;-71
2022/09/13 01:12:52;;;;;;;24.35;18.23;;;17.30;99.90;;;;;;5086696;28;20042;-71
2022/09/13 01:15:18;;;;;;;26.75;18.85;;;17.30;99.90;;;;;;5090075;28;20104;-71
2022/09/13 01:17:44;;;;;;;25.33;18.08;;;17.30;99.90;;;;;;5087515;28;20576;-71
2022/09/13 01:20:11;;;;;;;26.42;19.60;;;17.30;99.90;;;;;;5084959;28;20075;-71
2022/09/13 01:22:51;;;;;;;25.38;18.67;;;17.30;99.90;;;;;;5078927;28;20104;-71
2022/09/13 01:25:32;;;;;;;25.92;19.52;;;17.30;99.90;;;;;;5090377;28;20056;-71
2022/09/13 01:28:16;;;;;;;25.13;18.50;;;17.30;99.90;;;;;;5090228;28;20040;-72
2022/09/13 01:30:44;;;;;;;27.80;19.80;;;17.30;99.90;;;;;;5088210;28;20469;-71
2022/09/13 01:33:18;;;;;;;31.08;19.58;;;17.40;99.90;;;;;;5084697;28;20075;-71
2022/09/13 01:36:31;;;;;;;31.33;22.17;;;17.30;99.90;;;;;;5086099;28;20052;-71
2022/09/13 01:39:22;;;;;;;29.17;19.67;;;17.30;99.90;;;;;;5064644;28;20075;-71
2022/09/13 01:42:25;;;;;;;27.85;19.85;;;17.30;99.90;;;;;;5092825;28;20052;-71
2022/09/13 01:45:28;;;;;;;30.17;21.27;;;17.30;99.90;;;;;;5100238;28;20108;-71
2022/09/13 01:48:07;;;;;;;28.17;21.50;;;17.30;99.90;;;;;;5089925;28;20076;-71
2022/09/13 01:50:40;;;;;;;35.03;21.60;;;17.20;99.90;;;;;;5095788;28;20051;-71
2022/09/13 01:53:21;;;;;;;28.92;20.42;;;17.30;99.90;;;;;;5089924;28;20127;-71
2022/09/13 01:56:08;;;;;;;34.90;21.33;;;17.20;99.90;;;;;;5090409;28;20052;-71
2022/09/13 01:58:33;;;;;;;32.70;22.15;;;17.20;99.90;;;;;;5089193;28;20044;-71
2022/09/13 02:01:18;;;;;;;30.30;21.45;;;17.20;99.90;;;;;;5087882;28;20048;-71
2022/09/13 02:04:01;;;;;;;29.15;22.00;;;17.30;99.90;;;;;;5084144;28;20051;-71
2022/09/13 02:06:37;;;;;;;31.60;22.90;;;17.30;99.90;;;;;;5094479;28;20074;-71
2022/09/13 02:09:10;;;;;;;29.48;21.17;;;17.30;99.90;;;;;;5087098;28;20057;-71
2022/09/13 02:11:39;;;;;;;28.23;21.50;;;17.30;99.90;;;;;;5086060;28;20072;-71
2022/09/13 02:14:36;;;;;;;26.70;19.05;;;17.20;99.90;;;;;;5088554;28;20048;-71
2022/09/13 02:17:10;;;;;;;28.17;20.90;;;17.20;99.90;;;;;;5084290;28;20144;-71
2022/09/13 02:20:03;;;;;;;31.77;21.83;;;17.30;99.90;;;;;;5090376;28;20033;-71
2022/09/13 02:22:43;;;;;;;36.30;23.25;;;17.30;99.90;;;;;;5083804;28;20135;-71
2022/09/13 02:25:13;;;;;;;33.90;22.30;;;17.20;99.90;;;;;;5092513;28;20047;-71
2022/09/13 02:27:40;;;;;;;34.00;23.73;;;17.20;99.90;;;;;;5083253;28;20080;-71
2022/09/13 02:30:11;;;;;;;36.80;24.48;;;17.20;99.90;;;;;;5086398;28;20482;-71
2022/09/13 02:32:56;;;;;;;31.70;23.67;;;17.20;99.90;;;;;;5086024;28;20063;-71
2022/09/13 02:35:43;;;;;;;30.58;22.65;;;17.20;99.90;;;;;;5090995;28;20032;-71
2022/09/13 02:38:15;;;;;;;35.50;23.98;;;17.10;99.90;;;;;;5084883;28;20048;-71
2022/09/13 02:40:48;;;;;;;35.97;25.65;;;17.00;99.90;;;;;;5089548;28;20048;-72
2022/09/13 02:43:26;;;;;;;37.00;25.65;;;17.00;99.90;;;;;;5085508;28;20040;-71
2022/09/13 02:46:04;;;;;;;36.85;25.05;;;17.00;99.90;;;;;;5085476;28;20040;-71
2022/09/13 02:48:55;;;;;;;37.63;26.08;;;17.00;99.90;;;;;;5086481;28;20055;-71
2022/09/13 02:51:34;;;;;;;36.33;25.42;;;17.00;99.90;;;;;;5085978;28;20081;-71
2022/09/13 02:54:17;;;;;;;38.45;27.33;;;17.00;99.90;;;;;;5096475;28;20040;-71
2022/09/13 02:57:14;;;;;;;39.28;27.83;;;17.00;99.90;;;;;;5091862;28;20100;-71
2022/09/13 02:59:39;;;;;;;40.75;26.75;;;17.00;99.90;;;;;;5090267;28;20072;-71
2022/09/13 03:02:07;;;;;;;44.05;28.63;;;16.90;99.90;;;;;;5098418;28;20059;-71
2022/09/13 03:04:34;;;;;;;36.10;25.27;;;16.90;99.90;;;;;;5096076;28;20101;-71
2022/09/13 03:07:03;;;;;;;39.42;26.63;;;17.00;99.90;;;;;;5088070;28;20044;-71
2022/09/13 03:09:29;;;;;;;34.22;25.33;;;17.00;99.90;;;;;;5086893;28;20044;-71
2022/09/13 03:11:54;;;;;;;40.97;26.60;;;17.00;99.90;;;;;;5100493;28;20052;-71
2022/09/13 03:14:38;;;;;;;41.63;25.88;;;17.00;99.90;;;;;;5094751;28;20052;-71
2022/09/13 03:17:17;;;;;;;38.53;27.45;;;17.00;99.90;;;;;;5093995;28;20093;-71
2022/09/13 03:20:13;;;;;;;37.20;26.08;;;17.00;99.90;;;;;;5086732;28;20048;-71
2022/09/13 03:23:09;;;;;;;40.80;27.65;;;17.00;99.90;;;;;;5091328;28;20051;-71
2022/09/13 03:25:44;;;;;;;39.05;25.90;;;17.00;99.90;;;;;;5095879;28;20073;-71
2022/09/13 03:28:24;;;;;;;40.72;26.08;;;17.00;99.90;;;;;;5094922;28;20049;-71
2022/09/13 03:30:59;;;;;;;39.63;25.52;;;17.00;99.90;;;;;;5092923;28;20058;-71
2022/09/13 03:33:37;;;;;;;39.53;25.80;;;17.00;99.90;;;;;;5089631;28;20080;-71
2022/09/13 03:36:31;;;;;;;40.92;25.67;;;17.10;99.90;;;;;;5086348;28;20037;-71
2022/09/13 03:39:15;;;;;;;40.80;25.58;;;17.00;99.90;;;;;;5079868;28;20079;-71
2022/09/13 03:41:46;;;;;;;41.83;26.92;;;17.00;99.90;;;;;;5093272;28;20041;-71
2022/09/13 03:44:16;;;;;;;37.58;25.98;;;17.00;99.90;;;;;;5090561;28;20046;-71
2022/09/13 03:46:44;;;;;;;;;;;17.00;99.90;;;;;;5097611;28;20392;-71
2022/09/13 03:49:14;;;;;;;38.33;24.15;;;17.00;99.90;;;;;;5089760;28;19932;-71
2022/09/13 03:51:41;;;;;;;37.85;24.73;;;17.10;99.90;;;;;;5096525;28;20055;-71
2022/09/13 03:54:14;;;;;;;37.88;24.13;;;17.00;99.90;;;;;;5099751;28;20047;-71
2022/09/13 03:56:40;;;;;;;37.25;24.02;;;17.10;99.90;;;;;;5093455;28;20056;-71
2022/09/13 03:59:05;;;;;;;34.55;23.55;;;17.00;99.90;;;;;;5093169;28;20043;-71
2022/09/13 04:01:31;;;;;;;35.08;23.20;;;17.00;99.90;;;;;;5089419;28;20052;-71
2022/09/13 04:03:57;;;;;;;33.78;23.88;;;17.10;99.90;;;;;;5095498;28;20062;-71
2022/09/13 04:06:24;;;;;;;34.95;23.60;;;17.00;99.90;;;;;;5094532;28;20053;-71
2022/09/13 04:08:49;;;;;;;35.65;24.42;;;17.00;99.90;;;;;;5080118;28;20044;-71
2022/09/13 04:11:15;;;;;;;36.22;24.25;;;17.00;99.90;;;;;;5089935;28;20104;-71
2022/09/13 04:13:41;;;;;;;35.20;23.13;;;17.00;99.90;;;;;;5086684;28;20044;-71
2022/09/13 04:16:07;;;;;;;37.78;24.58;;;17.10;99.90;;;;;;5087536;28;20072;-71
2022/09/13 04:18:33;;;;;;;37.53;23.73;;;17.10;99.90;;;;;;5077945;28;20040;-71
2022/09/13 04:21:00;;;;;;;36.47;23.58;;;17.20;99.90;;;;;;5087850;28;20044;-71
2022/09/13 04:23:28;;;;;;;37.00;23.52;;;17.20;99.90;;;;;;5095389;28;20055;-71
2022/09/13 04:25:54;;;;;;;38.33;24.20;;;17.20;99.90;;;;;;5092389;28;20048;-71
2022/09/13 04:28:21;;;;;;;37.58;25.48;;;17.30;99.90;;;;;;5085384;28;20146;-71
2022/09/13 04:30:48;;;;;;;37.92;23.80;;;17.20;99.90;;;;;;5101391;28;20070;-71
2022/09/13 04:33:16;;;;;;;32.55;22.42;;;17.30;99.90;;;;;;5057876;28;20060;-71
2022/09/13 04:35:41;;;;;;;34.00;23.40;;;17.30;99.90;;;;;;5044840;28;20083;-71
2022/09/13 04:38:07;;;;;;;36.42;22.52;;;17.40;99.90;;;;;;5066315;28;20048;-71
2022/09/13 04:40:34;;;;;;;36.22;23.70;;;17.30;99.90;;;;;;5079623;28;20044;-73
2022/09/13 04:43:00;;;;;;;38.50;23.88;;;17.50;99.90;;;;;;5084509;28;20159;-72
2022/09/13 04:45:27;;;;;;;39.97;23.17;;;17.40;99.90;;;;;;5079584;28;20229;-72
2022/09/13 04:47:54;;;;;;;35.95;22.65;;;17.40;99.90;;;;;;5078028;28;20079;-71
2022/09/13 04:50:21;;;;;;;33.17;21.63;;;17.40;99.90;;;;;;5082139;28;20232;-72
2022/09/13 04:52:47;;;;;;;34.58;21.88;;;17.50;99.90;;;;;;5055027;28;20048;-70
2022/09/13 04:55:13;;;;;;;35.03;22.60;;;17.50;99.90;;;;;;5064392;28;20077;-70
2022/09/13 04:57:39;;;;;;;31.75;20.85;;;17.50;99.90;;;;;;5070037;28;20040;-69
2022/09/13 05:00:06;;;;;;;30.65;18.83;;;17.40;99.90;;;;;;5080469;28;20416;-70
2022/09/13 05:02:32;;;;;;;35.35;21.75;;;17.40;99.90;;;;;;5073470;28;20044;-70
2022/09/13 05:04:57;;;;;;;36.83;22.67;;;17.50;99.90;;;;;;5064416;28;20063;-70
2022/09/13 05:07:23;;;;;;;30.30;20.35;;;17.50;99.90;;;;;;5072183;28;20059;-72
2022/09/13 05:09:49;;;;;;;31.88;20.92;;;17.50;99.90;;;;;;5084318;28;20044;-71
2022/09/13 05:12:14;;;;;;;30.27;20.95;;;17.50;99.90;;;;;;5081250;28;20051;-72
2022/09/13 05:14:40;;;;;;;28.33;21.23;;;17.60;99.90;;;;;;5097361;28;20054;-71
2022/09/13 05:17:06;;;;;;;34.97;22.15;;;17.60;99.90;;;;;;5084808;28;20052;-69
2022/09/13 05:19:32;;;;;;;27.98;20.33;;;17.50;99.90;;;;;;5095489;28;20046;-73
2022/09/13 05:21:57;;;;;;;25.52;18.30;;;17.60;99.90;;;;;;5090534;28;20047;-72
2022/09/13 05:24:23;;;;;;;28.13;19.40;;;17.60;99.90;;;;;;5083439;28;20056;-71
2022/09/13 05:26:49;;;;;;;26.17;18.35;;;17.60;99.90;;;;;;5099693;28;20122;-72
2022/09/13 05:29:14;;;;;;;26.38;16.98;;;17.60;99.90;;;;;;5081250;28;20547;-72
2022/09/13 05:31:41;;;;;;;27.73;17.27;;;17.60;99.90;;;;;;5089493;28;20058;-69
2022/09/13 05:34:13;;;;;;;26.88;17.80;;;17.60;99.90;;;;;;5092334;28;20059;-69
2022/09/13 05:36:40;;;;;;;20.42;15.20;;;17.60;99.90;;;;;;5068809;28;20056;-70
2022/09/13 05:39:07;;;;;;;21.73;16.92;;;17.60;99.90;;;;;;5095624;28;20040;-66
2022/09/13 05:41:32;;;;;;;25.15;19.48;;;17.70;99.90;;;;;;5078515;28;20460;-70
2022/09/13 05:43:59;;;;;;;27.50;17.80;;;17.60;99.90;;;;;;5085964;28;20076;-70
2022/09/13 05:46:25;;;;;;;25.90;18.13;;;17.60;99.90;;;;;;5083496;28;20496;-70
2022/09/13 05:48:50;;;;;;;23.55;15.63;;;17.60;99.90;;;;;;5088019;28;20058;-70
2022/09/13 05:51:17;;;;;;;28.30;18.23;;;17.60;99.90;;;;;;5079189;28;20044;-70
2022/09/13 05:53:49;;;;;;;27.98;18.73;;;17.60;99.90;;;;;;5085301;28;20048;-70
2022/09/13 05:56:17;;;;;;;27.90;17.13;;;17.60;99.90;;;;;;5092063;28;20048;-70
2022/09/13 05:58:45;;;;;;;27.08;17.98;;;17.60;99.90;;;;;;5091711;28;20057;-70
2022/09/13 06:01:12;;;;;;;24.60;15.93;;;17.60;99.90;;;;;;5084559;28;20088;-70
2022/09/13 06:03:38;;;;;;;23.55;17.83;;;17.70;99.90;;;;;;5095964;28;20052;-70
2022/09/13 06:06:05;;;;;;;25.25;16.02;;;17.70;99.90;;;;;;5094725;28;20080;-70
2022/09/13 06:08:32;;;;;;;27.25;16.40;;;17.60;99.90;;;;;;5085938;28;20083;-70
2022/09/13 06:11:03;;;;;;;22.75;16.17;;;17.70;99.90;;;;;;5095415;28;20048;-70
2022/09/13 06:13:29;;;;;;;25.35;16.88;;;17.70;99.90;;;;;;5094832;28;20158;-70
2022/09/13 06:15:57;;;;;;;27.08;16.95;;;17.70;99.90;;;;;;5090947;28;20059;-69
2022/09/13 06:18:26;;;;;;;21.33;14.90;;;17.70;99.90;;;;;;5085933;28;20048;-69
2022/09/13 06:20:59;;;;;;;23.55;14.60;;;17.70;99.90;;;;;;5095463;28;20055;-69
2022/09/13 06:23:25;;;;;;;17.60;12.25;;;17.70;99.90;;;;;;5087421;28;20423;-69
2022/09/13 06:26:06;;;;;;;14.48;8.45;;;17.70;99.90;;;;;;5086213;28;20435;-69
2022/09/13 06:28:32;;;;;;;12.25;7.60;;;17.50;99.90;;;;;;5098622;28;20052;-69
2022/09/13 06:31:06;;;;;;;9.88;5.30;;;17.50;99.90;;;;;;5096725;28;20061;-69
2022/09/13 06:33:35;;;;;;;9.18;4.70;;;17.50;99.90;;;;;;5097157;28;20041;-70
2022/09/13 06:36:02;;;;;;;10.43;4.63;;;17.50;99.90;;;;;;5089289;28;20048;-69
2022/09/13 06:38:28;;;;;;;11.43;4.63;;;17.50;99.90;;;;;;5094416;28;20032;-70
2022/09/13 06:41:05;;;;;;;9.30;3.78;;;17.40;99.90;;;;;;5102118;28;20078;-69
2022/09/13 06:43:31;;;;;;;8.43;3.33;;;17.40;99.90;;;;;;5077664;28;20044;-69
2022/09/13 06:46:03;;;;;;;6.65;2.90;;;17.40;99.90;;;;;;5075621;28;20093;-69
2022/09/13 06:48:37;;;;;;;5.82;2.70;;;17.30;99.90;;;;;;5096503;28;20416;-69
2022/09/13 06:51:05;;;;;;;6.57;3.45;;;17.20;99.90;;;;;;5101494;28;20084;-69
2022/09/13 06:53:33;;;;;;;11.07;3.60;;;17.30;99.90;;;;;;5092589;28;20052;-70
2022/09/13 06:56:04;;;;;;;5.65;2.85;;;17.30;99.90;;;;;;5094006;28;20040;-69
2022/09/13 06:58:31;;;;;;;6.40;3.45;;;17.30;99.90;;;;;;5101923;28;20119;-69
2022/09/13 07:01:15;;;;;;;4.95;3.00;;;17.30;99.90;;;;;;5072489;28;20040;-69
2022/09/13 07:03:49;;;;;;;6.95;3.10;;;17.20;99.90;;;;;;5095914;28;20039;-69
2022/09/13 07:06:17;;;;;;;8.23;3.42;;;17.30;99.90;;;;;;5092142;28;20044;-69
2022/09/13 07:08:44;;;;;;;7.13;3.60;;;17.30;99.90;;;;;;5087455;28;20053;-69
2022/09/13 07:11:12;;;;;;;9.23;3.45;;;17.20;99.90;;;;;;5089647;28;20045;-69
2022/09/13 07:13:39;;;;;;;6.63;3.30;;;17.30;99.90;;;;;;5094537;28;20071;-69
2022/09/13 07:16:10;;;;;;;7.75;3.50;;;17.30;99.90;;;;;;5085534;28;20058;-69
2022/09/13 07:18:36;;;;;;;11.95;3.88;;;17.30;99.90;;;;;;5094555;28;20048;-69
2022/09/13 07:21:08;;;;;;;8.63;3.30;;;17.40;99.90;;;;;;5087347;28;20090;-69
2022/09/13 07:23:36;;;;;;;8.65;3.30;;;17.50;99.90;;;;;;5092870;28;20044;-69
2022/09/13 07:26:04;;;;;;;9.60;3.97;;;17.40;99.90;;;;;;5104511;28;20063;-69
2022/09/13 07:28:39;;;;;;;7.20;3.20;;;17.60;99.90;;;;;;5102376;28;20060;-69
2022/09/13 07:31:20;;;;;;;7.10;3.00;;;17.60;99.90;;;;;;5097315;28;20167;-69
2022/09/13 07:33:46;;;;;;;7.78;3.55;;;17.60;99.90;;;;;;5097366;28;20052;-69
2022/09/13 07:36:13;;;;;;;5.85;3.10;;;17.60;99.90;;;;;;5085348;28;20043;-69
2022/09/13 07:38:44;;;;;;;9.55;3.65;;;17.70;99.90;;;;;;5089274;28;20044;-69
2022/09/13 07:41:15;;;;;;;9.05;3.47;;;17.70;99.90;;;;;;5103479;28;20100;-69
2022/09/13 07:43:41;;;;;;;7.90;4.25;;;17.70;99.90;;;;;;5091089;28;20052;-69
2022/09/13 07:46:12;;;;;;;9.50;3.95;;;17.70;99.90;;;;;;5102701;28;20052;-69
2022/09/13 07:48:40;;;;;;;6.90;2.60;;;17.80;99.90;;;;;;5098201;28;20079;-69
2022/09/13 07:51:11;;;;;;;9.15;2.78;;;17.80;99.90;;;;;;5102462;28;20048;-69
2022/09/13 07:53:38;;;;;;;9.18;2.92;;;17.90;99.90;;;;;;5097893;28;20058;-69
2022/09/13 07:56:06;;;;;;;8.38;2.35;;;17.90;99.90;;;;;;5084800;28;20074;-69
2022/09/13 07:58:34;;;;;;;11.82;2.20;;;18.00;99.90;;;;;;5100994;28;20047;-69
2022/09/13 08:01:06;;;;;;;9.07;1.92;;;18.10;99.90;;;;;;5096897;28;20044;-69
2022/09/13 08:03:34;;;;;;;8.52;2.38;;;18.20;99.90;;;;;;5098037;28;20040;-69
2022/09/13 08:06:00;;;;;;;8.02;1.90;;;18.20;99.90;;;;;;5095926;28;20044;-69
2022/09/13 08:08:27;;;;;;;6.18;1.70;;;18.20;99.90;;;;;;5101659;28;20062;-69
2022/09/13 08:10:53;;;;;;;7.05;1.48;;;18.30;99.90;;;;;;5099906;28;20036;-69
2022/09/13 08:13:18;;;;;;;6.30;1.55;;;18.10;99.90;;;;;;5103712;28;20036;-69
2022/09/13 08:15:44;;;;;;;9.15;1.50;;;18.20;99.90;;;;;;5100860;28;20551;-69
2022/09/13 08:18:10;;;;;;;8.25;1.40;;;18.30;99.90;;;;;;5085837;28;20500;-69
2022/09/13 08:20:39;;;;;;;5.90;2.03;;;18.40;99.90;;;;;;5095368;28;20044;-69
2022/09/13 08:23:06;;;;;;;4.03;1.70;;;18.50;99.90;;;;;;5097909;28;20047;-69
2022/09/13 08:25:33;;;;;;;4.20;1.20;;;18.50;99.90;;;;;;5096021;28;20051;-69
2022/09/13 08:28:00;;;;;;;8.27;1.40;;;18.50;99.90;;;;;;5086778;28;20078;-69
2022/09/13 08:30:31;;;;;;;7.93;1.27;;;18.50;99.90;;;;;;5098274;28;20047;-69
2022/09/13 08:32:59;;;;;;;5.22;1.23;;;18.50;99.90;;;;;;5097344;28;20507;-69
2022/09/13 08:35:24;;;;;;;4.13;1.20;;;18.50;99.90;;;;;;5100895;28;20052;-69
2022/09/13 08:37:50;;;;;;;3.13;1.15;;;18.50;99.90;;;;;;5096680;28;20094;-69
2022/09/13 08:40:16;;;;;;;5.05;1.08;;;18.40;99.90;;;;;;5087375;28;20052;-69
2022/09/13 08:43:23;;;;;;;5.68;1.65;;;18.40;99.90;;;;;;5094089;28;20079;-69
2022/09/13 08:46:04;;;;;;;7.05;1.50;;;18.40;99.90;;;;;;5096117;28;20055;-69
2022/09/13 08:48:37;;;;;;;6.72;1.20;;;18.50;99.90;;;;;;5098197;28;20123;-69
2022/09/13 08:51:12;;;;;;;7.00;1.40;;;18.60;99.90;;;;;;5082876;28;20073;-69
2022/09/13 08:53:46;;;;;;;5.68;1.08;;;18.70;99.90;;;;;;5085649;28;20512;-69
2022/09/13 08:56:32;;;;;;;3.70;1.40;;;18.70;99.90;;;;;;5077289;28;20036;-69
2022/09/13 08:59:10;;;;;;;5.10;1.00;;;18.90;99.90;;;;;;5099870;28;20044;-69
2022/09/13 09:02:13;;;;;;;3.20;0.90;;;18.90;99.90;;;;;;5096872;28;20051;-69
2022/09/13 09:04:50;;;;;;;3.95;1.02;;;18.90;99.90;;;;;;5085674;28;20086;-69
2022/09/13 09:07:39;;;;;;;2.28;0.93;;;18.90;99.90;;;;;;5096178;28;20447;-69
2022/09/13 09:10:12;;;;;;;4.53;1.02;;;19.00;99.90;;;;;;5088833;28;20068;-69
2022/09/13 09:12:46;;;;;;;7.93;2.35;;;19.10;99.90;;;;;;5091221;28;20047;-69
2022/09/13 09:15:24;;;;;;;2.10;0.77;;;19.10;99.90;;;;;;5091744;28;20431;-69
2022/09/13 09:18:22;;;;;;;4.20;1.35;;;19.20;99.90;;;;;;5086503;28;20078;-69
2022/09/13 09:20:57;;;;;;;5.68;1.67;;;19.30;99.90;;;;;;5095859;28;20059;-69
2022/09/13 09:23:25;;;;;;;2.40;0.80;;;19.40;99.90;;;;;;5083199;28;20044;-69
2022/09/13 09:25:55;;;;;;;11.95;1.35;;;19.50;99.90;;;;;;5094729;28;20376;-69
2022/09/13 09:28:21;;;;;;;4.57;1.10;;;19.60;99.90;;;;;;5098867;28;20044;-69
2022/09/13 09:30:59;;;;;;;7.50;1.40;;;19.50;99.90;;;;;;5099744;28;20518;-69
2022/09/13 09:33:24;;;;;;;4.60;1.25;;;19.50;99.90;;;;;;5095125;28;20055;-69
2022/09/13 09:36:18;;;;;;;5.43;1.13;;;19.50;99.90;;;;;;5098498;28;20040;-69
2022/09/13 09:38:44;;;;;;;7.07;1.55;;;19.50;99.90;;;;;;5092368;28;20633;-69
2022/09/13 09:41:26;;;;;;;3.53;0.80;;;19.70;99.90;;;;;;5096551;28;20063;-69
2022/09/13 09:44:07;;;;;;;6.15;1.30;;;19.70;99.90;;;;;;5096485;28;20047;-69
2022/09/13 09:46:37;;;;;;;9.10;1.15;;;19.70;99.90;;;;;;5085057;28;20052;-69
2022/09/13 09:50:07;;;;;;;;;;;19.80;99.90;;;;;;5090342;28;20065;-69
2022/09/13 09:52:05;;;;;;;5.88;1.20;;;20.00;99.90;;;;;;5092957;28;19920;-69
2022/09/13 09:54:33;;;;;;;3.25;1.10;;;20.20;99.90;;;;;;5093794;28;20096;-69
2022/09/13 09:57:00;;;;;;;5.25;1.23;;;20.00;99.90;;;;;;5088224;28;20054;-69
2022/09/13 09:59:31;;;;;;;2.72;1.00;;;20.10;99.90;;;;;;5091661;28;20048;-69
2022/09/13 10:01:59;;;;;;;2.30;0.80;;;20.10;99.90;;;;;;5093872;28;20048;-69
2022/09/13 10:04:25;;;;;;;5.75;1.00;;;20.00;99.90;;;;;;5092406;28;20067;-69
2022/09/13 10:07:12;;;;;;;4.03;1.23;;;20.10;99.90;;;;;;5093446;28;20049;-69
2022/09/13 10:09:38;;;;;;;3.80;1.00;;;20.30;99.90;;;;;;5100068;28;20487;-69
2022/09/13 10:12:05;;;;;;;10.45;1.17;;;20.50;99.90;;;;;;5093098;28;20040;-69
2022/09/13 10:14:37;;;;;;;4.90;1.00;;;20.60;99.90;;;;;;5093936;28;20052;-69
2022/09/13 10:17:20;;;;;;;3.70;1.00;;;20.60;99.90;;;;;;5096136;28;20044;-69
2022/09/13 10:20:12;;;;;;;5.93;0.90;;;20.50;99.90;;;;;;5102707;28;20059;-69
2022/09/13 10:22:37;;;;;;;4.38;0.80;;;20.20;99.90;;;;;;5082878;28;20052;-70
2022/09/13 10:25:22;;;;;;;5.43;0.88;;;20.10;99.90;;;;;;5097740;28;20056;-69
2022/09/13 10:27:54;;;;;;;6.45;1.00;;;20.20;99.90;;;;;;5087211;28;20064;-69
2022/09/13 10:30:37;;;;;;;4.32;0.90;;;20.30;99.90;;;;;;5099736;28;20059;-69
2022/09/13 10:33:04;;;;;;;3.85;0.80;;;20.30;99.90;;;;;;5099867;28;20040;-70
2022/09/13 10:35:31;;;;;;;2.25;0.68;;;20.40;99.90;;;;;;5107104;28;20047;-70
2022/09/13 10:37:57;;;;;;;4.25;1.10;;;20.50;99.90;;;;;;5098233;28;20570;-70
2022/09/13 10:40:33;;;;;;;5.55;1.13;;;20.70;99.90;;;;;;5099883;28;20040;-70
2022/09/13 10:43:02;;;;;;;8.20;1.10;;;20.80;99.90;;;;;;5090037;28;20118;-70
2022/09/13 10:45:30;;;;;;;9.80;1.65;;;21.00;99.90;;;;;;5093690;28;20070;-69
2022/09/13 10:48:09;;;;;;;5.20;0.88;;;21.00;99.90;;;;;;5092996;28;20599;-69
2022/09/13 10:50:35;;;;;;;4.15;1.00;;;20.80;99.90;;;;;;5086591;28;20516;-69
2022/09/13 10:53:02;;;;;;;7.90;1.10;;;20.60;99.90;;;;;;5077985;28;20126;-70
2022/09/13 10:55:34;;;;;;;6.85;1.23;;;20.40;99.90;;;;;;5097280;28;20052;-70
2022/09/13 10:58:00;;;;;;;3.53;1.00;;;20.30;99.90;;;;;;5096165;28;20044;-70
2022/09/13 11:00:47;;;;;;;6.45;0.77;;;20.40;99.90;;;;;;5092542;28;20504;-69
2022/09/13 11:03:34;;;;;;;3.08;0.70;;;20.50;99.90;;;;;;5096986;28;20047;-69
2022/09/13 11:06:38;;;;;;;6.25;0.95;;;20.60;99.90;;;;;;5092565;28;20051;-69
2022/09/13 11:09:18;;;;;;;4.03;0.98;;;20.90;99.90;;;;;;5099837;28;20504;-70
2022/09/13 11:12:09;;;;;;;3.90;0.70;;;20.90;99.90;;;;;;5085274;28;20050;-69
2022/09/13 11:14:55;;;;;;;5.28;0.70;;;20.90;99.90;;;;;;5098259;28;20078;-69
2022/09/13 11:17:33;;;;;;;8.95;0.93;;;20.80;99.90;;;;;;5103210;28;20035;-70
2022/09/13 11:20:17;;;;;;;5.18;0.90;;;20.60;99.90;;;;;;5096182;28;20072;-70
2022/09/13 11:23:07;;;;;;;4.25;1.33;;;20.50;99.90;;;;;;5091876;28;20049;-70
2022/09/13 11:25:42;;;;;;;6.40;1.40;;;20.40;99.90;;;;;;5080691;28;20499;-70
2022/09/13 11:28:13;;;;;;;3.67;0.85;;;20.60;99.90;;;;;;5097651;28;20091;-70
2022/09/13 11:30:56;;;;;;;4.13;1.00;;;20.70;99.90;;;;;;5088483;28;20385;-69
2022/09/13 11:33:45;;;;;;;4.00;0.90;;;21.00;99.90;;;;;;5102698;28;20055;-69
2022/09/13 11:36:59;;;;;;;5.53;1.20;;;21.20;99.90;;;;;;5096557;28;20048;-69
2022/09/13 11:39:35;;;;;;;7.57;1.27;;;21.40;99.90;;;;;;5087235;28;20097;-70
2022/09/13 11:42:21;;;;;;;7.13;1.15;;;21.40;99.90;;;;;;5089906;28;20040;-69
2022/09/13 11:45:18;;;;;;;6.68;1.35;;;21.40;99.90;;;;;;5090129;28;20083;-70
2022/09/13 11:47:44;;;;;;;5.75;1.08;;;21.60;99.90;;;;;;5086724;28;20059;-70
2022/09/13 11:50:30;;;;;;;6.85;1.05;;;21.70;99.90;;;;;;5085677;28;20044;-70
2022/09/13 11:53:22;;;;;;;6.00;1.25;;;21.90;99.90;;;;;;5087152;28;20199;-70
2022/09/13 11:55:55;;;;;;;5.85;1.10;;;22.00;99.90;;;;;;5104897;28;20086;-70
2022/09/13 11:58:34;;;;;;;4.82;1.40;;;22.00;99.90;;;;;;5105736;28;20054;-70
2022/09/13 12:01:11;;;;;;;4.25;0.93;;;22.00;99.90;;;;;;5086009;28;20044;-70
2022/09/13 12:03:47;;;;;;;3.92;1.02;;;22.00;99.90;;;;;;5084799;28;20049;-70
2022/09/13 12:06:29;;;;;;;6.05;1.30;;;21.90;99.90;;;;;;5084430;28;20092;-70
2022/09/13 12:09:18;;;;;;;4.30;0.80;;;21.70;99.90;;;;;;5084571;28;20063;-70
2022/09/13 12:12:03;;;;;;;5.38;1.10;;;21.50;99.90;;;;;;5082758;28;20127;-70
2022/09/13 12:14:52;;;;;;;5.60;1.15;;;21.30;99.90;;;;;;5103962;28;20040;-70
2022/09/13 12:17:34;;;;;;;3.45;1.10;;;21.40;99.90;;;;;;5104081;28;20060;-70
2022/09/13 12:20:02;;;;;;;5.95;1.38;;;21.60;99.90;;;;;;5104426;28;20055;-70
2022/09/13 12:22:32;;;;;;;7.60;1.25;;;21.60;99.90;;;;;;5104746;28;20088;-70
2022/09/13 12:25:04;;;;;;;5.45;1.10;;;21.70;99.90;;;;;;5105499;28;20040;-70
2022/09/13 12:28:06;;;;;;;12.63;1.48;;;21.80;99.90;;;;;;5105802;28;20059;-70
2022/09/13 12:30:53;;;;;;;4.90;0.80;;;21.90;99.90;;;;;;5085690;28;20048;-70
2022/09/13 12:33:19;;;;;;;5.78;0.95;;;22.30;99.90;;;;;;5084852;28;20128;-70
2022/09/13 12:36:13;;;;;;;3.95;1.33;;;22.40;99.90;;;;;;5084602;28;20048;-70
2022/09/13 12:38:38;;;;;;;4.05;1.00;;;22.30;99.90;;;;;;5087942;28;20076;-70
2022/09/13 12:41:31;;;;;;;5.03;1.00;;;22.30;99.90;;;;;;5084109;28;20056;-70
2022/09/13 12:44:22;;;;;;;7.32;1.05;;;22.20;99.90;;;;;;5083659;28;20055;-70
2022/09/13 12:47:16;;;;;;;5.13;1.13;;;22.20;99.90;;;;;;5092151;28;20058;-70
2022/09/13 12:50:04;;;;;;;6.60;1.30;;;22.20;99.90;;;;;;5068290;28;20181;-70
2022/09/13 12:52:36;;;;;;;5.32;1.40;;;22.10;99.90;;;;;;5084555;28;20045;-70
2022/09/13 12:55:29;;;;;;;4.00;1.13;;;21.90;99.90;;;;;;5083869;28;20105;-70
2022/09/13 12:58:09;;;;;;;5.38;0.93;;;22.00;99.90;;;;;;5085989;28;20048;-70
2022/09/13 13:01:01;;;;;;;4.65;0.73;;;22.20;99.90;;;;;;5085992;28;20063;-70
2022/09/13 13:03:34;;;;;;;4.63;1.33;;;22.40;99.90;;;;;;5084074;28;20178;-70
2022/09/13 13:06:24;;;;;;;6.30;0.98;;;22.60;99.90;;;;;;5083378;28;20040;-70
2022/09/13 13:08:50;;;;;;;;;;;22.70;99.90;;;;;;5084074;28;20056;-70
2022/09/13 13:11:23;;;;;;;5.15;1.10;;;22.60;99.90;;;;;;5083165;28;19924;-70